sensor_id;sensor_type;location;lat;lon;timestamp;pressure;altitude;pressure_sealevel;temperature;humidity
80198;BME280;69517;52.030;7.106;2023-10-09T00:01:24;101080.94;;;21.83;91.08
80198;BME280;69517;52.030;7.106;2023-10-09T00:03:52;101070.41;;;21.83;91.13
80198;BME280;69517;52.030;7.106;2023-10-09T00:06:20;101076.06;;;21.77;91.55
80198;BME280;69517;52.030;7.106;2023-10-09T00:09:01;101076.63;;;21.82;91.06
80198;BME280;69517;52.030;7.106;2023-10-09T00:11:42;101064.41;;;21.81;91.18
80198;BME280;69517;52.030;7.106;2023-10-09T00:14:10;101062.78;;;21.78;91.33
80198;BME280;69517;52.030;7.106;2023-10-09T00:16:36;101061.94;;;21.78;91.39
80198;BME280;69517;52.030;7.106;2023-10-09T00:19:10;101057.53;;;21.78;91.23
80198;BME280;69517;52.030;7.106;2023-10-09T00:21:42;101055.84;;;21.77;91.41
80198;BME280;69517;52.030;7.106;2023-10-09T00:24:09;101049.44;;;21.81;91.10
80198;BME280;69517;52.030;7.106;2023-10-09T00:26:39;101045.22;;;21.79;91.11
80198;BME280;69517;52.030;7.106;2023-10-09T00:29:10;101042.59;;;21.79;91.18
80198;BME280;69517;52.030;7.106;2023-10-09T00:31:40;101050.38;;;21.80;91.01
80198;BME280;69517;52.030;7.106;2023-10-09T00:34:16;101058.38;;;21.79;91.26
80198;BME280;69517;52.030;7.106;2023-10-09T00:36:43;101058.38;;;21.79;91.11
80198;BME280;69517;52.030;7.106;2023-10-09T00:39:15;101053.88;;;21.81;91.03
80198;BME280;69517;52.030;7.106;2023-10-09T00:41:48;101062.91;;;21.77;91.23
80198;BME280;69517;52.030;7.106;2023-10-09T00:44:14;101062.69;;;21.80;90.84
80198;BME280;69517;52.030;7.106;2023-10-09T00:46:40;101067.22;;;21.78;91.21
80198;BME280;69517;52.030;7.106;2023-10-09T00:49:08;101070.59;;;21.80;91.04
80198;BME280;69517;52.030;7.106;2023-10-09T00:51:37;101063.84;;;21.76;91.16
80198;BME280;69517;52.030;7.106;2023-10-09T00:54:09;101064.56;;;21.78;91.14
80198;BME280;69517;52.030;7.106;2023-10-09T00:56:39;101061.00;;;21.79;91.04
80198;BME280;69517;52.030;7.106;2023-10-09T00:59:08;101061.09;;;21.77;91.00
80198;BME280;69517;52.030;7.106;2023-10-09T01:01:39;101060.28;;;21.77;90.97
80198;BME280;69517;52.030;7.106;2023-10-09T01:04:10;101058.38;;;21.79;91.03
80198;BME280;69517;52.030;7.106;2023-10-09T01:06:42;101056.69;;;21.78;91.06
80198;BME280;69517;52.030;7.106;2023-10-09T01:09:10;101047.94;;;21.77;90.98
80198;BME280;69517;52.030;7.106;2023-10-09T01:11:37;101049.84;;;21.75;90.90
80198;BME280;69517;52.030;7.106;2023-10-09T01:14:14;101042.16;;;21.72;91.27
80198;BME280;69517;52.030;7.106;2023-10-09T01:16:40;101042.81;;;21.76;91.03
80198;BME280;69517;52.030;7.106;2023-10-09T01:19:11;101037.53;;;21.76;91.08
80198;BME280;69517;52.030;7.106;2023-10-09T01:21:50;101036.59;;;21.77;90.80
80198;BME280;69517;52.030;7.106;2023-10-09T01:24:17;101028.72;;;21.77;90.97
80198;BME280;69517;52.030;7.106;2023-10-09T01:26:45;101038.38;;;21.76;91.05
80198;BME280;69517;52.030;7.106;2023-10-09T01:29:15;101034.59;;;21.80;90.87
80198;BME280;69517;52.030;7.106;2023-10-09T01:31:41;101034.91;;;21.76;91.02
80198;BME280;69517;52.030;7.106;2023-10-09T01:34:11;101033.00;;;21.78;90.61
80198;BME280;69517;52.030;7.106;2023-10-09T01:36:39;101034.06;;;21.75;91.13
80198;BME280;69517;52.030;7.106;2023-10-09T01:39:06;101034.78;;;21.77;90.94
80198;BME280;69517;52.030;7.106;2023-10-09T01:41:48;101023.63;;;21.74;90.89
80198;BME280;69517;52.030;7.106;2023-10-09T01:44:17;101019.22;;;21.74;90.93
80198;BME280;69517;52.030;7.106;2023-10-09T01:46:44;101022.59;;;21.76;90.83
80198;BME280;69517;52.030;7.106;2023-10-09T01:49:11;101023.44;;;21.77;90.79
80198;BME280;69517;52.030;7.106;2023-10-09T01:51:42;101016.50;;;21.76;90.94
80198;BME280;69517;52.030;7.106;2023-10-09T01:54:09;101006.25;;;21.71;90.98
80198;BME280;69517;52.030;7.106;2023-10-09T01:56:41;101016.50;;;21.76;90.77
80198;BME280;69517;52.030;7.106;2023-10-09T01:59:12;101004.25;;;21.75;90.83
80198;BME280;69517;52.030;7.106;2023-10-09T02:01:40;101004.25;;;21.75;90.82
80198;BME280;69517;52.030;7.106;2023-10-09T02:04:12;100995.72;;;21.71;90.89
80198;BME280;69517;52.030;7.106;2023-10-09T02:06:45;101004.34;;;21.73;91.04
80198;BME280;69517;52.030;7.106;2023-10-09T02:09:15;101008.69;;;21.74;90.80
80198;BME280;69517;52.030;7.106;2023-10-09T02:11:47;101008.47;;;21.77;90.68
80198;BME280;69517;52.030;7.106;2023-10-09T02:14:17;101021.94;;;21.73;90.99
80198;BME280;69517;52.030;7.106;2023-10-09T02:16:45;101007.66;;;21.77;90.67
80198;BME280;69517;52.030;7.106;2023-10-09T02:19:27;101004.44;;;21.72;90.78
80198;BME280;69517;52.030;7.106;2023-10-09T02:21:58;101000.16;;;21.71;91.12
80198;BME280;69517;52.030;7.106;2023-10-09T02:24:26;100997.13;;;21.77;90.65
80198;BME280;69517;52.030;7.106;2023-10-09T02:27:06;100992.91;;;21.74;90.75
80198;BME280;69517;52.030;7.106;2023-10-09T02:29:34;100984.06;;;21.75;90.70
80198;BME280;69517;52.030;7.106;2023-10-09T02:32:03;100979.72;;;21.74;90.79
80198;BME280;69517;52.030;7.106;2023-10-09T02:34:38;100973.84;;;21.71;90.82
80198;BME280;69517;52.030;7.106;2023-10-09T02:37:04;100979.81;;;21.73;90.83
80198;BME280;69517;52.030;7.106;2023-10-09T02:39:35;100975.31;;;21.75;90.50
80198;BME280;69517;52.030;7.106;2023-10-09T02:42:08;100969.31;;;21.73;90.54
80198;BME280;69517;52.030;7.106;2023-10-09T02:44:46;100953.50;;;21.73;90.71
80198;BME280;69517;52.030;7.106;2023-10-09T02:47:14;100951.72;;;21.73;90.90
80198;BME280;69517;52.030;7.106;2023-10-09T02:49:45;100947.31;;;21.74;90.64
80198;BME280;69517;52.030;7.106;2023-10-09T02:52:13;100948.34;;;21.71;90.79
80198;BME280;69517;52.030;7.106;2023-10-09T02:54:44;100943.31;;;21.68;90.91
80198;BME280;69517;52.030;7.106;2023-10-09T02:57:12;100959.84;;;21.70;90.81
80198;BME280;69517;52.030;7.106;2023-10-09T02:59:48;100954.44;;;21.72;90.74
80198;BME280;69517;52.030;7.106;2023-10-09T03:02:16;100957.94;;;21.72;90.64
80198;BME280;69517;52.030;7.106;2023-10-09T03:04:43;100954.56;;;21.70;90.72
80198;BME280;69517;52.030;7.106;2023-10-09T03:07:09;100945.84;;;21.70;90.58
80198;BME280;69517;52.030;7.106;2023-10-09T03:09:38;100943.09;;;21.71;90.75
80198;BME280;69517;52.030;7.106;2023-10-09T03:12:06;100936.03;;;21.72;90.62
80198;BME280;69517;52.030;7.106;2023-10-09T03:14:35;100937.00;;;21.71;90.62
80198;BME280;69517;52.030;7.106;2023-10-09T03:17:04;100927.59;;;21.67;90.83
80198;BME280;69517;52.030;7.106;2023-10-09T03:19:32;100923.84;;;21.71;90.71
80198;BME280;69517;52.030;7.106;2023-10-09T03:22:02;100925.72;;;21.69;90.84
80198;BME280;69517;52.030;7.106;2023-10-09T03:24:28;100914.34;;;21.68;90.89
80198;BME280;69517;52.030;7.106;2023-10-09T03:26:56;100910.56;;;21.72;90.55
80198;BME280;69517;52.030;7.106;2023-10-09T03:29:22;100913.31;;;21.71;90.67
80198;BME280;69517;52.030;7.106;2023-10-09T03:31:49;100910.56;;;21.72;90.65
80198;BME280;69517;52.030;7.106;2023-10-09T03:34:17;100916.88;;;21.70;90.55
80198;BME280;69517;52.030;7.106;2023-10-09T03:36:43;100926.56;;;21.69;90.62
80198;BME280;69517;52.030;7.106;2023-10-09T03:39:09;100923.00;;;21.70;90.74
80198;BME280;69517;52.030;7.106;2023-10-09T03:41:49;100921.22;;;21.71;90.61
80198;BME280;69517;52.030;7.106;2023-10-09T03:44:15;100923.84;;;21.71;90.46
80198;BME280;69517;52.030;7.106;2023-10-09T03:46:43;100926.56;;;21.69;90.68
80198;BME280;69517;52.030;7.106;2023-10-09T03:49:09;100929.09;;;21.71;90.56
80198;BME280;69517;52.030;7.106;2023-10-09T03:51:39;100914.97;;;21.72;90.56
80198;BME280;69517;52.030;7.106;2023-10-09T03:54:07;100922.88;;;21.72;90.59
80198;BME280;69517;52.030;7.106;2023-10-09T03:56:34;100922.03;;;21.71;90.44
80198;BME280;69517;52.030;7.106;2023-10-09T03:59:00;100920.56;;;21.67;90.72
80198;BME280;69517;52.030;7.106;2023-10-09T04:01:29;100904.69;;;21.69;90.41
80198;BME280;69517;52.030;7.106;2023-10-09T04:04:03;100911.63;;;21.70;90.51
80198;BME280;69517;52.030;7.106;2023-10-09T04:06:31;100929.91;;;21.71;90.25
80198;BME280;69517;52.030;7.106;2023-10-09T04:09:00;100927.41;;;21.70;90.51
80198;BME280;69517;52.030;7.106;2023-10-09T04:11:38;100922.16;;;21.70;90.51
80198;BME280;69517;52.030;7.106;2023-10-09T04:14:07;100912.66;;;21.67;90.53
80198;BME280;69517;52.030;7.106;2023-10-09T04:16:37;100911.72;;;21.68;90.55
80198;BME280;69517;52.030;7.106;2023-10-09T04:19:16;100906.56;;;21.67;90.61
80198;BME280;69517;52.030;7.106;2023-10-09T04:21:47;100910.03;;;21.67;90.64
80198;BME280;69517;52.030;7.106;2023-10-09T04:24:14;100904.69;;;21.69;90.35
80198;BME280;69517;52.030;7.106;2023-10-09T04:26:50;100901.38;;;21.65;90.62
80198;BME280;69517;52.030;7.106;2023-10-09T04:29:21;100892.69;;;21.65;90.73
80198;BME280;69517;52.030;7.106;2023-10-09T04:31:51;100887.41;;;21.65;90.59
80198;BME280;69517;52.030;7.106;2023-10-09T04:34:18;100903.22;;;21.65;90.85
80198;BME280;69517;52.030;7.106;2023-10-09T04:36:47;100920.47;;;21.69;90.52
80198;BME280;69517;52.030;7.106;2023-10-09T04:39:16;100927.50;;;21.68;90.52
80198;BME280;69517;52.030;7.106;2023-10-09T04:42:00;100920.78;;;21.64;90.65
80198;BME280;69517;52.030;7.106;2023-10-09T04:44:51;100935.41;;;21.68;90.49
80198;BME280;69517;52.030;7.106;2023-10-09T04:47:40;100936.34;;;21.67;90.52
80198;BME280;69517;52.030;7.106;2023-10-09T04:50:14;100946.78;;;21.69;90.39
80198;BME280;69517;52.030;7.106;2023-10-09T04:53:01;100946.69;;;21.70;90.45
80198;BME280;69517;52.030;7.106;2023-10-09T04:55:48;100948.66;;;21.67;90.60
80198;BME280;69517;52.030;7.106;2023-10-09T04:58:20;100937.41;;;21.65;90.75
80198;BME280;69517;52.030;7.106;2023-10-09T05:00:50;100933.94;;;21.64;90.69
80198;BME280;69517;52.030;7.106;2023-10-09T05:03:29;100920.47;;;21.69;90.44
80198;BME280;69517;52.030;7.106;2023-10-09T05:06:08;100934.47;;;21.69;90.39
80198;BME280;69517;52.030;7.106;2023-10-09T05:08:46;100944.25;;;21.67;90.53
80198;BME280;69517;52.030;7.106;2023-10-09T05:11:14;100943.41;;;21.67;90.54
80198;BME280;69517;52.030;7.106;2023-10-09T05:13:59;100946.97;;;21.66;90.54
80198;BME280;69517;52.030;7.106;2023-10-09T05:16:36;100947.94;;;21.65;90.41
80198;BME280;69517;52.030;7.106;2023-10-09T05:19:16;100947.72;;;21.68;90.32
80198;BME280;69517;52.030;7.106;2023-10-09T05:21:58;100948.88;;;21.64;90.65
80198;BME280;69517;52.030;7.106;2023-10-09T05:24:30;100954.00;;;21.65;90.48
80198;BME280;69517;52.030;7.106;2023-10-09T05:27:09;100955.00;;;21.64;90.50
80198;BME280;69517;52.030;7.106;2023-10-09T05:29:43;100963.81;;;21.63;90.77
80198;BME280;69517;52.030;7.106;2023-10-09T05:32:24;100947.09;;;21.64;90.49
80198;BME280;69517;52.030;7.106;2023-10-09T05:34:54;100952.34;;;21.64;90.60
80198;BME280;69517;52.030;7.106;2023-10-09T05:37:40;100947.38;;;21.60;90.99
80198;BME280;69517;52.030;7.106;2023-10-09T05:40:08;100952.75;;;21.58;90.99
80198;BME280;69517;52.030;7.106;2023-10-09T05:42:50;100960.00;;;21.55;91.15
80198;BME280;69517;52.030;7.106;2023-10-09T05:45:24;100960.09;;;21.53;90.63
80198;BME280;69517;52.030;7.106;2023-10-09T05:48:09;100965.78;;;21.60;90.60
80198;BME280;69517;52.030;7.106;2023-10-09T05:50:49;100984.97;;;21.62;90.47
80198;BME280;69517;52.030;7.106;2023-10-09T05:53:29;100982.34;;;21.62;90.56
80198;BME280;69517;52.030;7.106;2023-10-09T05:56:20;100984.88;;;21.63;90.44
80198;BME280;69517;52.030;7.106;2023-10-09T05:59:06;100976.13;;;21.63;90.30
80198;BME280;69517;52.030;7.106;2023-10-09T06:01:50;100970.03;;;21.62;90.26
80198;BME280;69517;52.030;7.106;2023-10-09T06:04:33;100972.44;;;21.65;90.21
80198;BME280;69517;52.030;7.106;2023-10-09T06:07:14;100983.81;;;21.66;90.19
80198;BME280;69517;52.030;7.106;2023-10-09T06:09:48;100996.34;;;21.62;90.32
80198;BME280;69517;52.030;7.106;2023-10-09T06:12:18;100994.47;;;21.64;90.34
80198;BME280;69517;52.030;7.106;2023-10-09T06:15:15;100994.56;;;21.63;90.37
80198;BME280;69517;52.030;7.106;2023-10-09T06:17:57;100983.09;;;21.64;90.49
80198;BME280;69517;52.030;7.106;2023-10-09T06:20:43;100983.19;;;21.62;90.35
80198;BME280;69517;52.030;7.106;2023-10-09T06:23:23;100987.41;;;21.65;90.11
80198;BME280;69517;52.030;7.106;2023-10-09T06:26:09;100995.50;;;21.62;90.61
80198;BME280;69517;52.030;7.106;2023-10-09T06:28:48;100992.84;;;21.62;90.47
80198;BME280;69517;52.030;7.106;2023-10-09T06:31:36;100990.97;;;21.64;90.42
80198;BME280;69517;52.030;7.106;2023-10-09T06:34:22;100995.50;;;21.62;90.48
80198;BME280;69517;52.030;7.106;2023-10-09T06:36:57;100985.81;;;21.62;90.46
80198;BME280;69517;52.030;7.106;2023-10-09T06:39:28;100994.66;;;21.61;90.67
80198;BME280;69517;52.030;7.106;2023-10-09T06:42:12;100995.50;;;21.62;90.40
80198;BME280;69517;52.030;7.106;2023-10-09T06:44:55;100985.72;;;21.64;90.27
80198;BME280;69517;52.030;7.106;2023-10-09T06:47:23;100995.19;;;21.66;90.09
80198;BME280;69517;52.030;7.106;2023-10-09T06:49:49;100985.41;;;21.68;90.09
80198;BME280;69517;52.030;7.106;2023-10-09T06:52:36;100991.59;;;21.67;90.25
80198;BME280;69517;52.030;7.106;2023-10-09T06:55:20;101019.63;;;21.68;90.29
80198;BME280;69517;52.030;7.106;2023-10-09T06:57:57;101027.59;;;21.67;90.49
80198;BME280;69517;52.030;7.106;2023-10-09T07:00:26;101033.09;;;21.64;90.73
80198;BME280;69517;52.030;7.106;2023-10-09T07:03:11;101030.44;;;21.64;90.75
80198;BME280;69517;52.030;7.106;2023-10-09T07:05:37;101004.22;;;21.62;90.65
80198;BME280;69517;52.030;7.106;2023-10-09T07:08:23;100996.34;;;21.62;90.75
80198;BME280;69517;52.030;7.106;2023-10-09T07:11:02;100986.75;;;21.61;90.74
80198;BME280;69517;52.030;7.106;2023-10-09T07:13:46;100971.81;;;21.62;90.80
80198;BME280;69517;52.030;7.106;2023-10-09T07:16:20;100987.59;;;21.62;90.81
80198;BME280;69517;52.030;7.106;2023-10-09T07:18:55;100995.50;;;21.62;90.60
80198;BME280;69517;52.030;7.106;2023-10-09T07:21:34;100984.03;;;21.63;90.51
80198;BME280;69517;52.030;7.106;2023-10-09T07:24:00;100992.84;;;21.62;90.54
80198;BME280;69517;52.030;7.106;2023-10-09T07:26:39;101001.50;;;21.64;90.37
80198;BME280;69517;52.030;7.106;2023-10-09T07:29:12;100990.97;;;21.64;90.52
80198;BME280;69517;52.030;7.106;2023-10-09T07:31:46;100980.72;;;21.59;90.82
80198;BME280;69517;52.030;7.106;2023-10-09T07:34:23;100990.31;;;21.60;90.99
80198;BME280;69517;52.030;7.106;2023-10-09T07:37:17;100988.75;;;21.58;90.77
80198;BME280;69517;52.030;7.106;2023-10-09T07:39:47;100988.44;;;21.62;90.83
80198;BME280;69517;52.030;7.106;2023-10-09T07:42:22;100991.81;;;21.64;90.65
80198;BME280;69517;52.030;7.106;2023-10-09T07:44:58;100986.44;;;21.66;90.78
80198;BME280;69517;52.030;7.106;2023-10-09T07:47:36;100981.19;;;21.66;90.74
80198;BME280;69517;52.030;7.106;2023-10-09T07:50:27;100980.31;;;21.65;90.79
80198;BME280;69517;52.030;7.106;2023-10-09T07:53:03;100995.00;;;21.69;90.70
80198;BME280;69517;52.030;7.106;2023-10-09T07:55:43;100996.78;;;21.69;90.81
80198;BME280;69517;52.030;7.106;2023-10-09T07:58:19;101000.13;;;21.58;91.32
80198;BME280;69517;52.030;7.106;2023-10-09T08:00:50;101008.00;;;21.58;91.30
80198;BME280;69517;52.030;7.106;2023-10-09T08:03:30;101003.19;;;21.65;90.68
80198;BME280;69517;52.030;7.106;2023-10-09T08:06:00;101012.53;;;21.56;90.97
80198;BME280;69517;52.030;7.106;2023-10-09T08:08:53;101012.84;;;21.52;89.95
80198;BME280;69517;52.030;7.106;2023-10-09T08:11:33;101023.16;;;21.55;90.02
80198;BME280;69517;52.030;7.106;2023-10-09T08:14:22;101029.78;;;21.60;90.65
80198;BME280;69517;52.030;7.106;2023-10-09T08:17:08;101036.84;;;21.60;90.86
80198;BME280;69517;52.030;7.106;2023-10-09T08:19:46;101039.59;;;21.58;90.12
80198;BME280;69517;52.030;7.106;2023-10-09T08:22:22;101037.69;;;21.60;89.96
80198;BME280;69517;52.030;7.106;2023-10-09T08:25:06;101031.03;;;21.55;90.56
80198;BME280;69517;52.030;7.106;2023-10-09T08:27:33;101040.22;;;21.62;90.46
80198;BME280;69517;52.030;7.106;2023-10-09T08:30:13;101040.31;;;21.60;90.44
80198;BME280;69517;52.030;7.106;2023-10-09T08:32:53;101028.72;;;21.50;90.88
80198;BME280;69517;52.030;7.106;2023-10-09T08:35:25;101011.72;;;21.41;91.09
80198;BME280;69517;52.030;7.106;2023-10-09T08:37:55;100986.19;;;21.43;90.76
80198;BME280;69517;52.030;7.106;2023-10-09T08:40:27;100958.94;;;21.44;90.12
80198;BME280;69517;52.030;7.106;2023-10-09T08:42:56;100945.97;;;21.41;90.20
80198;BME280;69517;52.030;7.106;2023-10-09T08:45:27;100957.78;;;21.49;90.09
80198;BME280;69517;52.030;7.106;2023-10-09T08:47:54;100967.16;;;21.53;90.23
80198;BME280;69517;52.030;7.106;2023-10-09T08:50:20;100964.81;;;21.48;90.54
80198;BME280;69517;52.030;7.106;2023-10-09T08:52:47;100956.84;;;21.50;90.59
80198;BME280;69517;52.030;7.106;2023-10-09T08:55:16;100941.91;;;21.50;90.68
80198;BME280;69517;52.030;7.106;2023-10-09T08:57:42;100935.78;;;21.50;90.71
80198;BME280;69517;52.030;7.106;2023-10-09T09:00:10;100940.13;;;21.51;90.83
80198;BME280;69517;52.030;7.106;2023-10-09T09:02:46;100941.06;;;21.50;90.56
80198;BME280;69517;52.030;7.106;2023-10-09T09:05:19;100949.47;;;21.55;90.20
80198;BME280;69517;52.030;7.106;2023-10-09T09:07:46;100953.03;;;21.54;90.30
80198;BME280;69517;52.030;7.106;2023-10-09T09:10:13;100959.06;;;21.56;90.28
80198;BME280;69517;52.030;7.106;2023-10-09T09:12:44;100948.63;;;21.54;90.27
80198;BME280;69517;52.030;7.106;2023-10-09T09:15:13;100959.06;;;21.56;90.34
80198;BME280;69517;52.030;7.106;2023-10-09T09:17:43;100974.53;;;21.60;90.00
80198;BME280;69517;52.030;7.106;2023-10-09T09:20:20;100976.44;;;21.58;90.21
80198;BME280;69517;52.030;7.106;2023-10-09T09:22:52;100974.66;;;21.59;90.07
80198;BME280;69517;52.030;7.106;2023-10-09T09:25:18;100988.63;;;21.59;90.07
80198;BME280;69517;52.030;7.106;2023-10-09T09:27:50;100987.59;;;21.62;89.98
80198;BME280;69517;52.030;7.106;2023-10-09T09:30:23;100992.00;;;21.61;90.13
80198;BME280;69517;52.030;7.106;2023-10-09T09:32:50;101015.78;;;21.60;90.01
80198;BME280;69517;52.030;7.106;2023-10-09T09:35:37;101020.09;;;21.61;89.99
80198;BME280;69517;52.030;7.106;2023-10-09T09:38:04;101012.22;;;21.61;90.09
80198;BME280;69517;52.030;7.106;2023-10-09T09:40:33;101016.53;;;21.62;90.07
80198;BME280;69517;52.030;7.106;2023-10-09T09:43:07;101009.59;;;21.61;90.05
80198;BME280;69517;52.030;7.106;2023-10-09T09:45:46;101011.38;;;21.60;90.01
80198;BME280;69517;52.030;7.106;2023-10-09T09:48:14;101015.78;;;21.60;90.27
80198;BME280;69517;52.030;7.106;2023-10-09T09:50:41;101006.94;;;21.61;90.10
80198;BME280;69517;52.030;7.106;2023-10-09T09:53:10;101015.06;;;21.58;90.30
80198;BME280;69517;52.030;7.106;2023-10-09T09:55:41;101019.38;;;21.59;90.19
80198;BME280;69517;52.030;7.106;2023-10-09T09:58:09;101031.56;;;21.60;90.12
80198;BME280;69517;52.030;7.106;2023-10-09T10:00:43;101032.41;;;21.60;90.13
80198;BME280;69517;52.030;7.106;2023-10-09T10:03:18;101033.34;;;21.59;90.02
80198;BME280;69517;52.030;7.106;2023-10-09T10:05:44;101043.78;;;21.61;90.06
80198;BME280;69517;52.030;7.106;2023-10-09T10:08:14;101036.00;;;21.59;90.11
80198;BME280;69517;52.030;7.106;2023-10-09T10:10:44;101031.56;;;21.60;89.89
80198;BME280;69517;52.030;7.106;2023-10-09T10:16:08;101037.91;;;21.57;90.43
80198;BME280;69517;52.030;7.106;2023-10-09T10:18:52;101038.63;;;21.59;90.25
80198;BME280;69517;52.030;7.106;2023-10-09T10:21:19;101045.69;;;21.59;90.20
80198;BME280;69517;52.030;7.106;2023-10-09T10:23:58;101038.63;;;21.59;89.99
80198;BME280;69517;52.030;7.106;2023-10-09T10:26:31;101028.31;;;21.56;90.09
80198;BME280;69517;52.030;7.106;2023-10-09T10:29:15;101025.59;;;21.58;90.32
80198;BME280;69517;52.030;7.106;2023-10-09T10:31:58;101031.78;;;21.57;90.15
80198;BME280;69517;52.030;7.106;2023-10-09T10:34:26;101042.09;;;21.60;90.20
80198;BME280;69517;52.030;7.106;2023-10-09T10:36:53;101048.34;;;21.59;90.24
80198;BME280;69517;52.030;7.106;2023-10-09T10:39:24;101047.34;;;21.60;90.16
80198;BME280;69517;52.030;7.106;2023-10-09T10:42:07;101041.25;;;21.59;90.09
80198;BME280;69517;52.030;7.106;2023-10-09T10:44:39;101049.25;;;21.58;90.31
80198;BME280;69517;52.030;7.106;2023-10-09T10:47:10;101051.78;;;21.59;90.29
80198;BME280;69517;52.030;7.106;2023-10-09T10:49:56;101044.84;;;21.58;90.14
80198;BME280;69517;52.030;7.106;2023-10-09T10:52:24;101043.88;;;21.59;90.12
80198;BME280;69517;52.030;7.106;2023-10-09T10:55:07;101038.63;;;21.59;90.20
80198;BME280;69517;52.030;7.106;2023-10-09T10:57:42;101036.00;;;21.59;90.14
80198;BME280;69517;52.030;7.106;2023-10-09T11:00:18;101037.81;;;21.59;90.09
80198;BME280;69517;52.030;7.106;2023-10-09T11:03:00;101030.72;;;21.59;90.20
80198;BME280;69517;52.030;7.106;2023-10-09T11:05:39;101043.06;;;21.59;90.26
80198;BME280;69517;52.030;7.106;2023-10-09T11:08:08;101047.47;;;21.58;90.04
80198;BME280;69517;52.030;7.106;2023-10-09T11:10:35;101041.25;;;21.59;90.20
80198;BME280;69517;52.030;7.106;2023-10-09T11:13:20;101035.25;;;21.57;90.18
80198;BME280;69517;52.030;7.106;2023-10-09T11:15:58;101036.97;;;21.58;90.14
80198;BME280;69517;52.030;7.106;2023-10-09T11:18:41;101041.38;;;21.58;90.12
80198;BME280;69517;52.030;7.106;2023-10-09T11:21:13;101038.75;;;21.58;90.28
80198;BME280;69517;52.030;7.106;2023-10-09T11:24:05;101025.88;;;21.53;90.73
80198;BME280;69517;52.030;7.106;2023-10-09T11:26:47;101024.28;;;21.51;90.40
80198;BME280;69517;52.030;7.106;2023-10-09T11:29:20;101022.50;;;21.51;90.28
80198;BME280;69517;52.030;7.106;2023-10-09T11:32:00;101019.97;;;21.50;89.67
80198;BME280;69517;52.030;7.106;2023-10-09T11:34:30;101028.63;;;21.52;89.98
80198;BME280;69517;52.030;7.106;2023-10-09T11:37:00;101029.25;;;21.55;90.00
80198;BME280;69517;52.030;7.106;2023-10-09T11:39:27;101043.34;;;21.54;89.70
80198;BME280;69517;52.030;7.106;2023-10-09T11:42:02;101036.28;;;21.55;89.81
80198;BME280;69517;52.030;7.106;2023-10-09T11:44:38;101037.22;;;21.54;89.84
80198;BME280;69517;52.030;7.106;2023-10-09T11:47:10;101037.22;;;21.54;89.87
80198;BME280;69517;52.030;7.106;2023-10-09T11:49:59;101037.22;;;21.54;89.83
80198;BME280;69517;52.030;7.106;2023-10-09T11:52:55;101038.06;;;21.54;89.87
80198;BME280;69517;52.030;7.106;2023-10-09T11:55:22;101028.41;;;21.55;90.13
80198;BME280;69517;52.030;7.106;2023-10-09T11:57:50;101027.56;;;21.54;89.98
80198;BME280;69517;52.030;7.106;2023-10-09T12:00:16;101037.16;;;21.55;89.54
80198;BME280;69517;52.030;7.106;2023-10-09T12:02:53;101038.63;;;21.59;89.33
80198;BME280;69517;52.030;7.106;2023-10-09T12:05:21;101041.25;;;21.59;89.42
80198;BME280;69517;52.030;7.106;2023-10-09T12:07:48;101045.47;;;21.62;89.61
80198;BME280;69517;52.030;7.106;2023-10-09T12:10:19;101046.97;;;21.66;89.69
80198;BME280;69517;52.030;7.106;2023-10-09T12:12:49;101046.03;;;21.67;89.88
80198;BME280;69517;52.030;7.106;2023-10-09T12:15:16;101056.75;;;21.64;90.47
80198;BME280;69517;52.030;7.106;2023-10-09T12:17:44;101054.00;;;21.65;90.38
80198;BME280;69517;52.030;7.106;2023-10-09T12:20:12;101050.44;;;21.66;90.00
80198;BME280;69517;52.030;7.106;2023-10-09T12:22:56;101042.66;;;21.65;90.51
80198;BME280;69517;52.030;7.106;2023-10-09T12:25:23;101033.94;;;21.64;90.40
80198;BME280;69517;52.030;7.106;2023-10-09T12:27:49;101028.53;;;21.66;90.49
80198;BME280;69517;52.030;7.106;2023-10-09T12:30:19;101020.66;;;21.66;90.19
80198;BME280;69517;52.030;7.106;2023-10-09T12:32:51;101028.44;;;21.67;90.36
80198;BME280;69517;52.030;7.106;2023-10-09T12:35:18;101027.50;;;21.68;90.42
80198;BME280;69517;52.030;7.106;2023-10-09T12:37:44;101034.66;;;21.66;90.74
80198;BME280;69517;52.030;7.106;2023-10-09T12:40:12;101034.66;;;21.66;90.96
80198;BME280;69517;52.030;7.106;2023-10-09T12:42:40;101041.50;;;21.69;90.93
80198;BME280;69517;52.030;7.106;2023-10-09T12:45:06;101027.50;;;21.68;90.93
80198;BME280;69517;52.030;7.106;2023-10-09T12:47:34;101026.56;;;21.69;91.12
80198;BME280;69517;52.030;7.106;2023-10-09T12:50:02;101020.47;;;21.69;91.08
80198;BME280;69517;52.030;7.106;2023-10-09T12:52:34;101019.72;;;21.67;91.11
80198;BME280;69517;52.030;7.106;2023-10-09T12:55:02;101014.34;;;21.68;91.14
80198;BME280;69517;52.030;7.106;2023-10-09T12:57:33;101027.50;;;21.68;91.20
80198;BME280;69517;52.030;7.106;2023-10-09T13:00:01;101015.19;;;21.69;90.91
80198;BME280;69517;52.030;7.106;2023-10-09T13:02:35;101020.38;;;21.70;90.94
80198;BME280;69517;52.030;7.106;2023-10-09T13:05:02;101017.75;;;21.70;90.78
80198;BME280;69517;52.030;7.106;2023-10-09T13:07:30;101014.34;;;21.68;90.47
80198;BME280;69517;52.030;7.106;2023-10-09T13:09:56;101019.63;;;21.68;91.05
80198;BME280;69517;52.030;7.106;2023-10-09T13:12:35;101015.19;;;21.69;90.98
80198;BME280;69517;52.030;7.106;2023-10-09T13:15:06;101007.31;;;21.69;91.04
80198;BME280;69517;52.030;7.106;2023-10-09T13:17:34;101017.06;;;21.67;91.21
80198;BME280;69517;52.030;7.106;2023-10-09T13:20:01;101015.19;;;21.69;91.22
80198;BME280;69517;52.030;7.106;2023-10-09T13:22:29;101019.53;;;21.70;91.14
80198;BME280;69517;52.030;7.106;2023-10-09T13:24:55;101023.94;;;21.69;91.67